Time;durP1;ratioP1;P1;durP2;ratioP2;P2;SDS_P1;SDS_P2;PMS_P1;PMS_P2;Temp;Humidity;BMP_temperature;BMP_pressure;BME280_temperature;BME280_humidity;BME280_pressure;Samples;Min_cycle;Max_cycle;Signal;HPM_P1;HPM_P2
2022/02/17 00:00:00;;;;;;;1.27;0.73;;;13.80;99.30;;;;;;5044873;28;20048;-64
2022/02/17 00:02:26;;;;;;;1.75;1.00;;;13.90;99.30;;;;;;5030449;28;20489;-64
2022/02/17 00:04:53;;;;;;;0.75;0.75;;;13.90;99.30;;;;;;5036555;28;20058;-64
2022/02/17 00:07:19;;;;;;;1.23;0.75;;;14.00;99.30;;;;;;5030603;28;20030;-65
2022/02/17 00:09:44;;;;;;;1.33;0.75;;;14.00;99.20;;;;;;5039394;28;20431;-63
2022/02/17 00:12:10;;;;;;;1.63;0.88;;;14.00;99.20;;;;;;5042572;28;20027;-65
2022/02/17 00:14:36;;;;;;;1.15;0.70;;;14.00;99.20;;;;;;5052870;28;20414;-64
2022/02/17 00:17:01;;;;;;;1.23;0.70;;;14.10;99.20;;;;;;5041210;28;20489;-64
2022/02/17 00:19:26;;;;;;;1.05;0.90;;;14.10;99.20;;;;;;5038073;28;20096;-64
2022/02/17 00:21:52;;;;;;;0.88;0.50;;;14.10;99.10;;;;;;5027231;28;20369;-64
2022/02/17 00:24:18;;;;;;;0.98;0.70;;;14.20;99.10;;;;;;5042655;28;20021;-63
2022/02/17 00:26:44;;;;;;;0.73;0.60;;;14.20;99.20;;;;;;5040223;28;20026;-64
2022/02/17 00:29:10;;;;;;;1.95;0.88;;;14.20;99.30;;;;;;5033618;28;20041;-64
2022/02/17 00:31:36;;;;;;;1.42;0.60;;;14.30;99.50;;;;;;5034194;28;20025;-64
2022/02/17 00:34:02;;;;;;;0.93;0.80;;;14.20;99.50;;;;;;5034815;28;20563;-64
2022/02/17 00:36:27;;;;;;;1.08;0.70;;;14.20;99.60;;;;;;5053692;28;20094;-64
2022/02/17 00:38:54;;;;;;;0.75;0.60;;;14.20;99.60;;;;;;5043990;28;20096;-63
2022/02/17 00:41:19;;;;;;;0.50;0.50;;;14.20;99.60;;;;;;5053355;28;20025;-63
2022/02/17 00:43:47;;;;;;;1.10;0.68;;;14.20;99.60;;;;;;5045621;28;20551;-65
2022/02/17 00:46:12;;;;;;;0.47;0.47;;;14.20;99.60;;;;;;5052937;28;20099;-64
2022/02/17 00:48:38;;;;;;;0.73;0.70;;;14.20;99.70;;;;;;5046875;28;20473;-65
2022/02/17 00:51:03;;;;;;;0.50;0.50;;;14.20;99.80;;;;;;5046328;28;20017;-65
2022/02/17 00:53:29;;;;;;;0.82;0.63;;;14.20;99.90;;;;;;5033596;28;20028;-63
2022/02/17 00:55:55;;;;;;;0.60;0.60;;;14.20;99.90;;;;;;5033570;28;20492;-63
2022/02/17 00:58:20;;;;;;;0.93;0.63;;;14.20;99.90;;;;;;5033372;28;20046;-62
2022/02/17 01:00:45;;;;;;;0.30;0.22;;;14.20;99.90;;;;;;5022102;28;20373;-64
2022/02/17 01:03:11;;;;;;;0.73;0.63;;;14.20;99.90;;;;;;5033411;28;20033;-64
2022/02/17 01:05:37;;;;;;;0.98;0.63;;;14.10;99.90;;;;;;5042664;28;20036;-63
2022/02/17 01:08:03;;;;;;;0.43;0.43;;;14.10;99.90;;;;;;5053257;28;20037;-63
2022/02/17 01:10:29;;;;;;;0.60;0.50;;;14.10;99.90;;;;;;5045695;28;20108;-63
2022/02/17 01:12:54;;;;;;;0.75;0.60;;;14.00;99.90;;;;;;5032788;28;20047;-64
2022/02/17 01:15:20;;;;;;;5.13;1.05;;;14.00;99.90;;;;;;5040221;28;20021;-63
2022/02/17 01:17:45;;;;;;;2.55;1.00;;;13.90;99.90;;;;;;5032615;28;20120;-64
2022/02/17 01:20:11;;;;;;;2.05;0.90;;;13.70;99.40;;;;;;5043785;28;20027;-64
2022/02/17 01:22:37;;;;;;;3.47;0.95;;;13.40;98.20;;;;;;5052930;28;20151;-64
2022/02/17 01:25:03;;;;;;;2.58;0.90;;;13.00;97.80;;;;;;5049975;28;20037;-63
2022/02/17 01:27:30;;;;;;;3.83;1.40;;;12.70;98.10;;;;;;5052670;28;20028;-63
2022/02/17 01:29:56;;;;;;;3.65;1.08;;;12.50;98.30;;;;;;5046351;28;20033;-63
2022/02/17 01:32:21;;;;;;;3.22;1.23;;;12.30;98.50;;;;;;5052294;28;20465;-64
2022/02/17 01:34:46;;;;;;;3.45;1.38;;;12.00;98.70;;;;;;5050565;28;20029;-63
2022/02/17 01:37:12;;;;;;;4.18;1.10;;;11.90;99.00;;;;;;5051625;28;20488;-65
2022/02/17 01:39:38;;;;;;;4.57;1.20;;;11.70;99.00;;;;;;5045753;28;20033;-65
2022/02/17 01:42:10;;;;;;;4.05;1.08;;;11.60;99.00;;;;;;5035293;28;20044;-64
2022/02/17 01:44:35;;;;;;;1.80;0.75;;;11.50;99.10;;;;;;5047906;28;20436;-65
2022/02/17 01:47:07;;;;;;;3.25;0.88;;;11.40;98.70;;;;;;5032876;28;20053;-65
2022/02/17 01:49:33;;;;;;;2.95;1.00;;;11.30;98.80;;;;;;5046537;28;20099;-65
2022/02/17 01:51:58;;;;;;;3.70;1.10;;;11.10;98.70;;;;;;5032586;28;20477;-65
2022/02/17 01:54:24;;;;;;;2.05;1.10;;;11.10;98.90;;;;;;5033430;28;20040;-65
2022/02/17 01:56:50;;;;;;;5.53;1.40;;;11.10;98.90;;;;;;5032272;28;20120;-65
2022/02/17 01:59:16;;;;;;;3.33;1.10;;;11.00;98.90;;;;;;5033772;28;20094;-65
2022/02/17 02:01:41;;;;;;;2.97;0.95;;;11.00;99.00;;;;;;5032124;28;20041;-64
2022/02/17 02:04:07;;;;;;;4.10;1.30;;;11.00;99.00;;;;;;5034268;28;20107;-65
2022/02/17 02:06:32;;;;;;;2.78;1.50;;;11.00;99.00;;;;;;5052241;28;20052;-63
2022/02/17 02:08:58;;;;;;;2.13;0.85;;;11.00;99.00;;;;;;5048483;28;20027;-64
2022/02/17 02:11:23;;;;;;;3.13;1.20;;;10.90;99.00;;;;;;5051023;28;20039;-65
2022/02/17 02:13:49;;;;;;;3.35;1.00;;;10.80;99.00;;;;;;5038789;28;20026;-64
2022/02/17 02:16:14;;;;;;;1.88;0.93;;;10.90;99.00;;;;;;5047479;28;20072;-64
2022/02/17 02:18:40;;;;;;;3.65;1.10;;;10.90;99.00;;;;;;5041383;28;20029;-64
2022/02/17 02:21:05;;;;;;;5.22;1.55;;;10.90;99.00;;;;;;5048092;28;20075;-63
2022/02/17 02:23:32;;;;;;;2.28;1.13;;;10.90;99.00;;;;;;5041942;28;20021;-64
2022/02/17 02:25:58;;;;;;;6.47;2.03;;;10.90;98.90;;;;;;5036907;28;20121;-64
2022/02/17 02:28:26;;;;;;;5.90;1.30;;;10.80;98.80;;;;;;5032119;28;20030;-64
2022/02/17 02:30:52;;;;;;;5.00;1.52;;;10.80;98.70;;;;;;5046756;28;20036;-64
2022/02/17 02:33:21;;;;;;;4.30;1.27;;;10.80;98.70;;;;;;5046096;28;20048;-64
2022/02/17 02:35:48;;;;;;;3.50;1.45;;;10.80;98.60;;;;;;5031770;28;20480;-64
2022/02/17 02:38:14;;;;;;;3.67;1.40;;;10.80;98.60;;;;;;5032048;28;20028;-65
2022/02/17 02:40:40;;;;;;;4.93;1.52;;;10.80;98.50;;;;;;5015067;28;20026;-64
2022/02/17 02:43:06;;;;;;;3.70;1.25;;;10.70;98.40;;;;;;5034980;28;20579;-64
2022/02/17 02:45:33;;;;;;;9.82;1.85;;;10.70;98.40;;;;;;5048836;28;20043;-65
2022/02/17 02:48:07;;;;;;;5.65;1.50;;;10.70;98.40;;;;;;5032225;28;20033;-64
2022/02/17 02:50:32;;;;;;;3.83;1.63;;;10.70;98.40;;;;;;5037238;28;20036;-65
2022/02/17 02:52:58;;;;;;;5.57;1.60;;;10.60;98.40;;;;;;5031473;28;20264;-65
2022/02/17 02:55:24;;;;;;;6.15;1.60;;;10.70;98.40;;;;;;5037600;28;20031;-64
2022/02/17 02:57:49;;;;;;;6.53;1.65;;;10.70;98.40;;;;;;5031581;28;20017;-64
2022/02/17 03:00:15;;;;;;;6.45;1.65;;;10.70;98.40;;;;;;5039532;28;20047;-64
2022/02/17 03:02:41;;;;;;;11.20;2.20;;;10.70;98.40;;;;;;5051244;28;20033;-64
2022/02/17 03:05:07;;;;;;;8.75;1.60;;;10.60;98.30;;;;;;5030411;28;20033;-64
2022/02/17 03:07:32;;;;;;;6.15;1.58;;;10.70;98.30;;;;;;5043995;28;20095;-64
2022/02/17 03:09:57;;;;;;;7.40;2.08;;;10.70;98.30;;;;;;5051886;28;20078;-65
2022/02/17 03:12:23;;;;;;;6.22;1.60;;;10.70;98.20;;;;;;5046951;28;20095;-64
2022/02/17 03:14:49;;;;;;;5.30;1.83;;;10.80;98.20;;;;;;5037591;28;20112;-65
2022/02/17 03:17:15;;;;;;;5.30;1.50;;;10.80;98.00;;;;;;5036597;28;20025;-64
2022/02/17 03:19:40;;;;;;;9.85;1.80;;;10.80;97.90;;;;;;5031074;28;20113;-64
2022/02/17 03:22:06;;;;;;;6.93;1.70;;;10.80;97.90;;;;;;5029963;28;20488;-64
2022/02/17 03:24:31;;;;;;;6.68;1.98;;;10.80;97.80;;;;;;5035869;28;20108;-64
2022/02/17 03:26:57;;;;;;;3.80;1.30;;;10.80;97.60;;;;;;5050069;28;20406;-64
2022/02/17 03:29:22;;;;;;;3.38;1.75;;;10.90;97.40;;;;;;5034559;28;20025;-64
2022/02/17 03:31:47;;;;;;;6.55;1.63;;;10.90;97.00;;;;;;5031715;28;20028;-65
2022/02/17 03:34:13;;;;;;;4.03;1.33;;;10.90;96.80;;;;;;5033725;28;20025;-64
2022/02/17 03:36:39;;;;;;;7.25;1.73;;;10.90;96.80;;;;;;5049658;28;20053;-64
2022/02/17 03:39:05;;;;;;;4.70;1.70;;;11.00;96.60;;;;;;5031708;28;20105;-64
2022/02/17 03:41:30;;;;;;;6.80;1.50;;;10.90;96.40;;;;;;5051375;28;20072;-64
2022/02/17 03:43:56;;;;;;;6.25;1.52;;;11.00;96.20;;;;;;5047025;28;20074;-64
2022/02/17 03:46:21;;;;;;;8.65;1.63;;;11.00;96.10;;;;;;5032302;28;20033;-64
2022/02/17 03:48:47;;;;;;;7.05;1.90;;;11.00;96.00;;;;;;5051943;28;20094;-64
2022/02/17 03:51:12;;;;;;;4.90;1.88;;;11.00;95.30;;;;;;5035101;28;20370;-64
2022/02/17 03:53:38;;;;;;;7.57;2.67;;;11.00;95.40;;;;;;5035153;28;20087;-64
2022/02/17 03:56:04;;;;;;;7.25;1.73;;;11.00;95.30;;;;;;5035492;28;20025;-64
2022/02/17 04:01:14;;;;;;;6.27;1.37;;;10.90;94.80;;;;;;5053189;28;20041;-64
2022/02/17 04:03:39;;;;;;;5.28;1.80;;;10.90;95.10;;;;;;5039047;28;20078;-64
2022/02/17 04:06:05;;;;;;;5.68;1.88;;;10.90;95.00;;;;;;5038405;28;20550;-64
2022/02/17 04:08:30;;;;;;;7.22;1.98;;;11.00;95.00;;;;;;5034532;28;20037;-64
2022/02/17 04:10:56;;;;;;;4.10;1.45;;;10.90;95.00;;;;;;5038956;28;20037;-64
2022/02/17 04:13:21;;;;;;;3.58;1.35;;;10.90;95.10;;;;;;5045584;28;20033;-64
2022/02/17 04:15:47;;;;;;;10.10;1.98;;;11.00;95.20;;;;;;5042861;28;20071;-64
2022/02/17 04:18:12;;;;;;;5.65;1.88;;;11.00;95.30;;;;;;5052187;28;20056;-64
2022/02/17 04:20:38;;;;;;;5.97;1.60;;;11.00;95.30;;;;;;5052885;28;20029;-64
2022/02/17 04:23:04;;;;;;;5.10;1.60;;;11.00;95.40;;;;;;5054290;28;20392;-64
2022/02/17 04:25:29;;;;;;;10.80;1.70;;;11.10;95.40;;;;;;5046764;28;20112;-65
2022/02/17 04:27:55;;;;;;;4.43;1.63;;;11.10;95.40;;;;;;5033986;28;20163;-63
2022/02/17 04:30:20;;;;;;;6.00;2.53;;;11.10;95.40;;;;;;5038474;28;20025;-63
2022/02/17 04:32:46;;;;;;;5.07;1.50;;;11.20;95.40;;;;;;5015953;28;20029;-64
2022/02/17 04:35:11;;;;;;;9.95;2.03;;;11.20;95.40;;;;;;5034225;28;20362;-64
2022/02/17 04:37:37;;;;;;;11.82;2.13;;;11.20;95.80;;;;;;5034421;28;20021;-64
2022/02/17 04:40:03;;;;;;;10.15;2.17;;;11.20;96.10;;;;;;5032964;28;20033;-64
2022/02/17 04:42:28;;;;;;;5.80;1.92;;;11.10;96.30;;;;;;5033881;28;20018;-64
2022/02/17 04:44:54;;;;;;;5.82;1.55;;;11.00;96.50;;;;;;5036715;28;20025;-65
2022/02/17 04:47:20;;;;;;;5.07;1.35;;;10.90;96.30;;;;;;5033814;28;20025;-66
2022/02/17 04:49:48;;;;;;;5.43;1.52;;;10.70;96.20;;;;;;5048350;28;20025;-65
2022/02/17 04:52:14;;;;;;;3.45;1.40;;;10.60;96.30;;;;;;5053805;28;20075;-64
2022/02/17 04:54:39;;;;;;;5.15;1.30;;;10.60;96.50;;;;;;5044124;28;20361;-64
2022/02/17 04:57:08;;;;;;;2.83;1.05;;;10.50;96.40;;;;;;5053783;28;20032;-64
2022/02/17 04:59:34;;;;;;;1.58;0.77;;;10.40;96.50;;;;;;5043278;28;20037;-65
2022/02/17 05:02:00;;;;;;;4.32;0.90;;;10.30;96.40;;;;;;5051072;28;20090;-64
2022/02/17 05:04:25;;;;;;;5.50;1.40;;;10.20;96.50;;;;;;5030784;28;20126;-65
2022/02/17 05:06:51;;;;;;;3.03;0.88;;;10.20;96.50;;;;;;5023652;28;20595;-66
2022/02/17 05:09:16;;;;;;;4.95;1.58;;;10.20;96.50;;;;;;5033196;28;20384;-64
2022/02/17 05:11:42;;;;;;;3.60;1.20;;;10.10;96.50;;;;;;5036052;28;20488;-64
2022/02/17 05:14:07;;;;;;;2.85;1.10;;;10.10;96.40;;;;;;5034187;28;20508;-64
2022/02/17 05:16:33;;;;;;;1.98;1.00;;;10.10;96.40;;;;;;5037562;28;20028;-65
2022/02/17 05:18:59;;;;;;;5.35;1.20;;;10.00;96.20;;;;;;5033256;28;20087;-65
2022/02/17 05:21:24;;;;;;;2.83;1.20;;;10.00;96.30;;;;;;5036953;28;20040;-64
2022/02/17 05:23:50;;;;;;;6.32;1.48;;;10.00;96.30;;;;;;5031400;28;20590;-65
2022/02/17 05:26:15;;;;;;;3.63;1.42;;;10.00;96.40;;;;;;5040874;28;20519;-64
2022/02/17 05:28:41;;;;;;;5.20;1.95;;;10.00;96.40;;;;;;5032501;28;20120;-64
2022/02/17 05:31:06;;;;;;;3.58;1.42;;;9.90;96.40;;;;;;5050189;28;20044;-64
2022/02/17 05:33:32;;;;;;;4.03;1.40;;;9.90;96.40;;;;;;5053026;28;20152;-64
2022/02/17 05:35:58;;;;;;;4.03;1.40;;;9.90;96.40;;;;;;5049602;28;20040;-64
2022/02/17 05:38:23;;;;;;;5.20;1.58;;;9.90;96.50;;;;;;5033035;28;20033;-66
2022/02/17 05:40:49;;;;;;;5.32;1.52;;;9.80;96.50;;;;;;5047878;28;20033;-65
2022/02/17 05:43:14;;;;;;;5.45;1.30;;;9.80;96.50;;;;;;5050756;28;20029;-64
2022/02/17 05:45:40;;;;;;;7.53;2.00;;;9.80;96.50;;;;;;5037495;28;20029;-65
2022/02/17 05:48:05;;;;;;;6.78;1.80;;;9.80;96.50;;;;;;5049737;28;20041;-64
2022/02/17 05:50:32;;;;;;;6.38;1.77;;;9.80;96.40;;;;;;5050796;28;20086;-65
2022/02/17 05:52:58;;;;;;;8.85;2.95;;;9.70;96.40;;;;;;5052465;28;20104;-65
2022/02/17 05:55:24;;;;;;;7.35;1.75;;;9.70;96.30;;;;;;5040471;28;20148;-64
2022/02/17 05:57:50;;;;;;;6.82;1.50;;;9.70;96.30;;;;;;5032430;28;20033;-66
2022/02/17 06:00:16;;;;;;;9.75;2.67;;;9.70;96.00;;;;;;5041971;28;20048;-64
2022/02/17 06:02:42;;;;;;;11.07;2.20;;;9.70;96.00;;;;;;5050885;28;20125;-65
2022/02/17 06:05:08;;;;;;;8.20;2.25;;;9.80;95.90;;;;;;5040488;28;20123;-64
2022/02/17 06:07:34;;;;;;;8.15;2.08;;;9.70;95.40;;;;;;5032489;28;20037;-65
2022/02/17 06:09:59;;;;;;;5.88;1.92;;;9.70;95.00;;;;;;5039142;28;20025;-65
2022/02/17 06:12:25;;;;;;;7.70;2.05;;;9.70;94.80;;;;;;5052410;28;20456;-65
2022/02/17 06:14:50;;;;;;;8.45;2.38;;;9.70;94.50;;;;;;5044852;28;20021;-64
2022/02/17 06:17:16;;;;;;;7.70;2.03;;;9.80;94.20;;;;;;5033619;28;20036;-63
2022/02/17 06:19:42;;;;;;;9.25;2.53;;;9.80;93.70;;;;;;5047500;28;20036;-64
2022/02/17 06:22:08;;;;;;;4.55;1.75;;;9.80;93.40;;;;;;5051854;28;20025;-64
2022/02/17 06:24:33;;;;;;;7.47;2.03;;;9.90;93.50;;;;;;5049214;28;20384;-64
2022/02/17 06:26:59;;;;;;;12.05;2.08;;;9.90;93.30;;;;;;5051770;28;20025;-65
2022/02/17 06:29:26;;;;;;;7.60;2.25;;;9.90;92.80;;;;;;5039438;28;20029;-65
2022/02/17 06:31:52;;;;;;;7.45;2.35;;;9.90;92.20;;;;;;5041897;28;20053;-65
2022/02/17 06:34:17;;;;;;;5.30;2.42;;;10.00;92.30;;;;;;5039921;28;20037;-65
2022/02/17 06:36:44;;;;;;;10.55;2.22;;;10.10;92.20;;;;;;5034319;28;20018;-65
2022/02/17 06:39:10;;;;;;;12.73;2.10;;;10.00;92.10;;;;;;5033188;28;20032;-65
2022/02/17 06:41:36;;;;;;;12.00;2.85;;;10.10;92.30;;;;;;5051801;28;20029;-65
2022/02/17 06:44:01;;;;;;;8.35;2.33;;;10.10;92.30;;;;;;5022817;28;20472;-63
2022/02/17 06:46:27;;;;;;;9.60;2.53;;;10.10;92.30;;;;;;5051641;28;20444;-65
2022/02/17 06:48:53;;;;;;;5.82;2.10;;;10.20;92.00;;;;;;5033965;28;20129;-65
2022/02/17 06:51:18;;;;;;;7.88;2.83;;;10.20;91.80;;;;;;5043384;28;20473;-64
2022/02/17 06:53:43;;;;;;;7.25;2.45;;;10.10;91.80;;;;;;5031633;28;20076;-64
2022/02/17 06:56:09;;;;;;;9.45;2.50;;;10.20;91.80;;;;;;5032719;28;20030;-64
2022/02/17 06:58:34;;;;;;;5.82;2.08;;;10.20;91.40;;;;;;5031523;28;20021;-66
2022/02/17 07:01:00;;;;;;;6.85;2.83;;;10.20;91.20;;;;;;5032851;28;20499;-65
2022/02/17 07:03:27;;;;;;;8.80;2.65;;;10.20;90.80;;;;;;5031285;28;20022;-65
2022/02/17 07:05:52;;;;;;;7.22;2.03;;;10.20;90.90;;;;;;5026889;28;20522;-65
2022/02/17 07:08:18;;;;;;;8.70;1.90;;;10.30;90.80;;;;;;5014070;28;20030;-65
2022/02/17 07:10:56;;;;;;;7.72;2.00;;;10.30;90.50;;;;;;5033441;28;20033;-66
2022/02/17 07:13:27;;;;;;;6.72;2.10;;;10.20;89.90;;;;;;5031003;28;20489;-65
2022/02/17 07:15:53;;;;;;;15.93;2.40;;;10.30;89.30;;;;;;5032680;28;20025;-65
2022/02/17 07:18:19;;;;;;;7.70;1.90;;;10.30;89.60;;;;;;5040025;28;20096;-65
2022/02/17 07:20:46;;;;;;;5.22;1.90;;;10.40;90.00;;;;;;5027788;28;20469;-65
2022/02/17 07:23:14;;;;;;;6.15;2.15;;;10.40;89.60;;;;;;5037664;28;20029;-64
2022/02/17 07:25:40;;;;;;;7.88;2.60;;;10.50;89.30;;;;;;5039979;28;20117;-65
2022/02/17 07:28:06;;;;;;;6.07;2.28;;;10.50;88.70;;;;;;5041930;28;20095;-66
2022/02/17 07:30:34;;;;;;;9.20;2.72;;;10.60;88.20;;;;;;5042337;28;20032;-65
2022/02/17 07:32:59;;;;;;;7.75;2.25;;;10.60;87.60;;;;;;5047179;28;20037;-65
2022/02/17 07:35:24;;;;;;;9.30;3.67;;;10.60;87.60;;;;;;5038816;28;22059;-65
2022/02/17 07:37:50;;;;;;;9.52;2.20;;;10.60;87.10;;;;;;5022795;28;20028;-65
2022/02/17 07:40:16;;;;;;;9.52;3.28;;;10.60;86.40;;;;;;5040505;28;20435;-65
2022/02/17 07:42:44;;;;;;;11.25;2.50;;;10.70;85.90;;;;;;5055614;28;20040;-64
2022/02/17 07:45:10;;;;;;;12.82;2.97;;;10.60;85.00;;;;;;5039386;28;20086;-64
2022/02/17 07:47:36;;;;;;;6.00;1.92;;;10.70;85.70;;;;;;5055450;28;20032;-63
2022/02/17 07:50:02;;;;;;;7.45;2.05;;;10.70;84.10;;;;;;5037602;28;20041;-64
2022/02/17 07:52:27;;;;;;;5.32;2.42;;;10.70;84.90;;;;;;5033018;28;20078;-64
2022/02/17 07:54:53;;;;;;;7.63;3.05;;;10.80;82.80;;;;;;5032199;28;20599;-64
2022/02/17 07:57:18;;;;;;;8.23;2.40;;;10.80;82.80;;;;;;5046983;28;20017;-65
2022/02/17 07:59:44;;;;;;;11.48;2.40;;;10.90;82.90;;;;;;5031310;28;20036;-65
2022/02/17 08:02:09;;;;;;;7.10;2.00;;;10.90;80.90;;;;;;5043088;28;20045;-65
2022/02/17 08:04:35;;;;;;;8.15;2.30;;;11.00;81.40;;;;;;5043739;28;20021;-64
2022/02/17 08:07:02;;;;;;;11.13;2.55;;;11.10;81.80;;;;;;5033216;28;20116;-65
2022/02/17 08:09:27;;;;;;;5.55;1.92;;;11.20;80.50;;;;;;5052154;28;20037;-64
2022/02/17 08:11:53;;;;;;;7.03;2.00;;;11.20;79.50;;;;;;5047083;28;20028;-64
2022/02/17 08:14:18;;;;;;;9.90;2.45;;;11.20;79.40;;;;;;5041874;28;20361;-65
2022/02/17 08:16:44;;;;;;;5.72;1.70;;;11.30;79.30;;;;;;5042526;28;20105;-65
2022/02/17 08:19:09;;;;;;;6.68;2.45;;;11.30;78.80;;;;;;5032764;28;20563;-65
2022/02/17 08:21:35;;;;;;;7.07;2.25;;;11.30;77.70;;;;;;5046548;28;20032;-66
2022/02/17 08:24:01;;;;;;;5.13;2.05;;;11.30;78.30;;;;;;5042830;28;20021;-64
2022/02/17 08:26:27;;;;;;;8.45;2.08;;;11.30;78.10;;;;;;5021681;28;20723;-63
2022/02/17 08:28:57;;;;;;;5.53;1.80;;;11.30;77.10;;;;;;5046739;28;20442;-65
2022/02/17 08:31:26;;;;;;;9.15;2.58;;;11.30;77.40;;;;;;5033867;28;20053;-63
2022/02/17 08:33:52;;;;;;;9.80;2.67;;;11.40;77.90;;;;;;5045380;28;20021;-63
2022/02/17 08:36:17;;;;;;;6.53;2.50;;;11.40;76.60;;;;;;5048317;28;20512;-64
2022/02/17 08:38:43;;;;;;;6.50;2.05;;;11.40;76.90;;;;;;5037857;28;20536;-63
2022/02/17 08:41:10;;;;;;;5.95;1.85;;;11.40;77.00;;;;;;5052562;28;20507;-63
2022/02/17 08:43:35;;;;;;;6.75;2.13;;;11.40;77.40;;;;;;5041694;28;20058;-63
2022/02/17 08:46:02;;;;;;;9.48;2.38;;;11.40;76.70;;;;;;5049346;28;21532;-64
2022/02/17 08:48:28;;;;;;;10.65;2.33;;;11.50;77.00;;;;;;5051835;28;20044;-64
2022/02/17 08:50:53;;;;;;;5.85;2.08;;;11.50;76.60;;;;;;5034715;28;20384;-64
2022/02/17 08:53:19;;;;;;;8.32;1.98;;;11.50;76.50;;;;;;5051928;28;20040;-63
2022/02/17 08:55:45;;;;;;;6.95;1.90;;;11.50;76.30;;;;;;5040795;28;20365;-63
2022/02/17 08:58:11;;;;;;;4.20;1.77;;;11.50;75.90;;;;;;5052616;28;20095;-63
2022/02/17 09:00:36;;;;;;;7.85;2.22;;;11.50;75.80;;;;;;5049509;28;20037;-63
2022/02/17 09:03:03;;;;;;;6.10;1.92;;;11.50;75.80;;;;;;5052755;28;20400;-63
2022/02/17 09:05:31;;;;;;;6.57;2.13;;;11.50;76.20;;;;;;5051236;28;20541;-62
2022/02/17 09:07:57;;;;;;;5.65;2.20;;;11.60;75.90;;;;;;5051206;28;20120;-62
2022/02/17 09:10:22;;;;;;;7.07;1.88;;;11.60;76.40;;;;;;5050137;28;20128;-63
2022/02/17 09:12:48;;;;;;;7.97;2.03;;;11.60;75.90;;;;;;5039080;28;20030;-63
2022/02/17 09:15:14;;;;;;;8.93;2.00;;;11.60;75.70;;;;;;5041182;28;20029;-62
2022/02/17 09:17:39;;;;;;;5.80;2.03;;;11.60;75.80;;;;;;5043613;28;20048;-63
2022/02/17 09:20:05;;;;;;;7.55;1.85;;;11.60;75.90;;;;;;5041576;28;20021;-63
2022/02/17 09:22:31;;;;;;;10.48;2.38;;;11.60;76.20;;;;;;5040871;28;20029;-63
2022/02/17 09:24:57;;;;;;;7.63;1.90;;;11.60;75.80;;;;;;5063402;28;20099;-64
2022/02/17 09:27:22;;;;;;;5.10;1.80;;;11.60;76.20;;;;;;5072771;28;20029;-62
2022/02/17 09:29:48;;;;;;;4.53;2.10;;;11.60;76.10;;;;;;5070353;28;20472;-63
2022/02/17 09:32:14;;;;;;;5.65;1.95;;;11.50;75.70;;;;;;5072809;28;20025;-63
2022/02/17 09:34:41;;;;;;;6.90;1.77;;;11.50;75.60;;;;;;5061687;28;20082;-64
2022/02/17 09:37:07;;;;;;;7.05;2.20;;;11.50;75.70;;;;;;5065448;28;20034;-63
2022/02/17 09:39:34;;;;;;;6.32;1.80;;;11.50;76.00;;;;;;5036782;28;20503;-62
2022/02/17 09:42:05;;;;;;;9.80;2.65;;;11.50;76.90;;;;;;5049164;28;20039;-63
2022/02/17 09:44:30;;;;;;;7.47;1.80;;;11.50;76.20;;;;;;5037057;28;20025;-62
2022/02/17 09:46:56;;;;;;;8.23;2.08;;;11.60;76.40;;;;;;5048113;28;20082;-63
2022/02/17 09:49:22;;;;;;;4.43;1.48;;;11.50;76.50;;;;;;5046132;28;20032;-63
2022/02/17 09:51:49;;;;;;;5.65;1.95;;;11.50;76.50;;;;;;5048985;28;20411;-63
2022/02/17 09:54:16;;;;;;;2.70;1.48;;;11.50;77.80;;;;;;5046024;28;20040;-63
2022/02/17 09:56:45;;;;;;;4.70;1.60;;;11.50;77.90;;;;;;5051917;28;20072;-63
2022/02/17 09:59:11;;;;;;;10.88;2.63;;;11.50;78.40;;;;;;5053956;28;20028;-63
2022/02/17 10:01:37;;;;;;;6.72;2.10;;;11.50;79.50;;;;;;5051467;28;20120;-63
2022/02/17 10:04:14;;;;;;;4.15;1.20;;;11.40;79.50;;;;;;5036505;28;20556;-63
2022/02/17 10:06:45;;;;;;;3.00;1.63;;;11.30;79.90;;;;;;5062659;28;20104;-63
2022/02/17 10:09:11;;;;;;;3.97;1.75;;;11.30;79.90;;;;;;5059464;28;20127;-63
2022/02/17 10:11:39;;;;;;;3.78;1.40;;;11.30;80.40;;;;;;5056476;28;20504;-62
2022/02/17 10:14:17;;;;;;;5.50;2.08;;;11.30;80.60;;;;;;5046561;28;20498;-64
2022/02/17 10:16:54;;;;;;;3.95;1.60;;;11.20;80.90;;;;;;5061142;28;20025;-63
2022/02/17 10:19:22;;;;;;;5.18;1.30;;;11.30;81.10;;;;;;5059370;28;20028;-63
2022/02/17 10:21:48;;;;;;;3.13;1.70;;;11.30;81.40;;;;;;5065206;28;20288;-63
2022/02/17 10:24:40;;;;;;;7.68;2.50;;;11.20;81.50;;;;;;5057978;28;20340;-62
2022/02/17 10:27:13;;;;;;;3.20;1.60;;;11.30;82.00;;;;;;5072193;28;20074;-63
2022/02/17 10:29:39;;;;;;;9.38;1.52;;;11.20;82.20;;;;;;5060184;28;20506;-62
2022/02/17 10:32:08;;;;;;;7.75;1.80;;;11.20;82.40;;;;;;5071601;28;20028;-63
2022/02/17 10:34:33;;;;;;;6.28;1.98;;;11.20;82.50;;;;;;5068971;28;20063;-63
2022/02/17 10:36:59;;;;;;;3.95;1.42;;;11.20;82.70;;;;;;5052527;28;20034;-63
2022/02/17 10:39:26;;;;;;;5.38;2.22;;;11.10;82.80;;;;;;5071399;28;20438;-62
2022/02/17 10:41:57;;;;;;;6.00;1.60;;;11.20;83.00;;;;;;5068746;28;20217;-63
2022/02/17 10:44:31;;;;;;;7.22;1.90;;;11.10;82.90;;;;;;5067784;28;20400;-62
2022/02/17 10:47:09;;;;;;;6.78;1.60;;;11.10;83.00;;;;;;5031057;28;20037;-63
2022/02/17 10:49:40;;;;;;;9.07;1.95;;;11.10;83.30;;;;;;5071212;28;20062;-62
2022/02/17 10:52:06;;;;;;;5.15;1.85;;;11.10;83.30;;;;;;5068677;28;20175;-63
2022/02/17 10:54:31;;;;;;;10.05;1.98;;;11.20;83.20;;;;;;5035408;28;20533;-63
2022/02/17 10:57:03;;;;;;;5.53;2.63;;;11.20;83.10;;;;;;5057892;28;20017;-63
2022/02/17 11:02:20;;;;;;;7.10;2.30;;;11.10;83.00;;;;;;5048086;28;20504;-62
2022/02/17 11:04:45;;;;;;;8.18;2.03;;;11.10;83.00;;;;;;5030481;28;20157;-62
2022/02/17 11:07:12;;;;;;;5.70;1.50;;;11.10;83.20;;;;;;5040981;28;20029;-63
2022/02/17 11:09:40;;;;;;;3.25;1.50;;;11.20;83.00;;;;;;5068539;28;20433;-62
2022/02/17 11:12:07;;;;;;;9.00;1.90;;;11.20;83.20;;;;;;5067869;28;20056;-63
2022/02/17 11:14:45;;;;;;;6.32;1.85;;;11.20;83.10;;;;;;5050820;28;20047;-63
2022/02/17 11:17:13;;;;;;;4.18;1.77;;;11.20;82.40;;;;;;5057921;28;20023;-63
2022/02/17 11:19:40;;;;;;;5.38;1.58;;;11.30;81.50;;;;;;5046600;28;20033;-63
2022/02/17 11:22:05;;;;;;;3.92;1.77;;;11.20;81.70;;;;;;5013047;28;20060;-64
2022/02/17 11:24:50;;;;;;;4.97;1.75;;;11.20;81.70;;;;;;5033771;28;20069;-63
2022/02/17 11:27:17;;;;;;;5.90;1.83;;;11.30;81.90;;;;;;5050859;28;20060;-63
2022/02/17 11:29:43;;;;;;;6.15;1.65;;;11.30;82.10;;;;;;5032605;28;20037;-63
2022/02/17 11:32:19;;;;;;;8.43;1.90;;;11.20;83.50;;;;;;5019068;28;20408;-63
2022/02/17 11:34:53;;;;;;;12.68;2.70;;;11.20;84.80;;;;;;5037723;28;20112;-65
2022/02/17 11:37:28;;;;;;;9.13;2.08;;;11.10;85.70;;;;;;5032049;28;20079;-64
2022/02/17 11:39:54;;;;;;;;;;;11.10;86.20;;;;;;5042287;28;20044;-65
2022/02/17 11:42:31;;;;;;;4.53;1.65;;;11.00;86.90;;;;;;5044058;28;19952;-63
2022/02/17 11:45:10;;;;;;;4.80;1.83;;;10.90;87.60;;;;;;5052339;28;20103;-65
2022/02/17 11:47:58;;;;;;;3.25;1.40;;;10.90;87.90;;;;;;5048109;28;20471;-65
2022/02/17 11:50:43;;;;;;;5.43;1.83;;;10.90;87.80;;;;;;5047121;28;20029;-64
2022/02/17 11:53:34;;;;;;;6.40;1.58;;;10.90;88.00;;;;;;5022959;28;20030;-64
2022/02/17 11:56:05;;;;;;;6.22;1.30;;;10.90;88.00;;;;;;5047754;28;20033;-64
2022/02/17 11:58:40;;;;;;;5.18;1.65;;;10.90;87.80;;;;;;5057634;28;20466;-64
2022/02/17 12:01:21;;;;;;;;;;;10.90;87.90;;;;;;5050061;28;20045;-64
2022/02/17 12:04:23;;;;;;;3.20;1.10;;;10.90;87.90;;;;;;5033177;28;20459;-65
2022/02/17 12:06:56;;;;;;;5.63;1.45;;;10.80;86.80;;;;;;5042964;28;20033;-63
2022/02/17 12:09:29;;;;;;;2.92;1.20;;;10.70;87.00;;;;;;5041717;28;20612;-64
2022/02/17 12:11:57;;;;;;;4.63;1.65;;;10.70;87.10;;;;;;5033864;28;20029;-64
2022/02/17 12:14:23;;;;;;;5.93;1.40;;;10.80;87.20;;;;;;5057555;28;20396;-66
2022/02/17 12:17:02;;;;;;;5.38;1.83;;;10.80;87.50;;;;;;5044178;28;20031;-64
2022/02/17 12:19:35;;;;;;;3.25;1.30;;;10.80;87.70;;;;;;5053152;28;20555;-63
2022/02/17 12:22:09;;;;;;;3.78;1.10;;;10.90;87.80;;;;;;5051329;28;20455;-62
2022/02/17 12:24:38;;;;;;;2.72;1.00;;;10.90;87.10;;;;;;5049511;28;20484;-63
2022/02/17 12:27:04;;;;;;;2.65;1.02;;;10.90;87.10;;;;;;5046293;28;20029;-64
2022/02/17 12:29:36;;;;;;;4.40;1.13;;;10.90;86.90;;;;;;5052143;28;20491;-64
2022/02/17 12:32:04;;;;;;;5.05;1.50;;;10.90;87.30;;;;;;5047469;28;20021;-63
2022/02/17 12:34:31;;;;;;;5.75;1.25;;;10.90;87.60;;;;;;5047216;28;21037;-64
2022/02/17 12:36:57;;;;;;;4.43;1.40;;;11.00;87.40;;;;;;5045416;28;20033;-64
2022/02/17 12:39:30;;;;;;;7.13;1.55;;;11.00;87.20;;;;;;5046791;28;20211;-64
2022/02/17 12:41:59;;;;;;;3.67;1.20;;;11.00;87.30;;;;;;5020936;28;20128;-63
2022/02/17 12:44:39;;;;;;;5.43;1.50;;;10.90;87.80;;;;;;5046940;28;20599;-64
2022/02/17 12:47:07;;;;;;;3.67;1.05;;;10.90;88.30;;;;;;5048266;28;20025;-64
2022/02/17 12:49:33;;;;;;;2.08;1.20;;;10.80;88.40;;;;;;5049189;28;20087;-64
2022/02/17 12:52:07;;;;;;;3.78;1.58;;;10.80;88.30;;;;;;5037190;28;20503;-63